createdAt,value
2017-11-03T00:00:38.051Z,99.99
2017-11-03T00:01:38.372Z,99.99
2017-11-03T00:02:38.050Z,99.99
2017-11-03T00:03:38.369Z,99.99
2017-11-03T00:04:38.367Z,99.99
2017-11-03T00:05:38.050Z,99.99
2017-11-03T00:06:38.364Z,99.99
2017-11-03T00:07:38.358Z,99.99
2017-11-03T00:08:38.363Z,99.99
2017-11-03T00:09:38.365Z,99.99
2017-11-03T00:10:38.063Z,99.99
2017-11-03T00:11:38.353Z,99.99
2017-11-03T00:12:38.389Z,99.99
2017-11-03T00:13:38.359Z,99.99
2017-11-03T00:14:38.024Z,99.99
2017-11-03T00:15:38.034Z,99.99
2017-11-03T00:16:38.351Z,99.99
2017-11-03T00:17:38.336Z,99.99
2017-11-03T00:18:38.023Z,99.99
2017-11-03T00:19:38.013Z,99.99
2017-11-03T00:20:38.354Z,99.99
2017-11-03T00:21:38.331Z,99.99
2017-11-03T00:22:38.007Z,99.99
2017-11-03T00:23:38.329Z,99.99
2017-11-03T00:24:38.003Z,99.99
2017-11-03T00:25:38.341Z,99.99
2017-11-03T00:26:38.326Z,99.99
2017-11-03T00:27:38.315Z,99.85
2017-11-03T00:28:38.002Z,99.95
2017-11-03T00:29:38.319Z,99.99
2017-11-03T00:30:38.993Z,99.99
2017-11-03T00:31:38.312Z,99.99
2017-11-03T00:32:38.316Z,99.95
2017-11-03T00:33:38.305Z,99.99
2017-11-03T00:34:37.983Z,99.99
2017-11-03T00:35:38.311Z,99.99
2017-11-03T00:36:38.304Z,99.85
2017-11-03T00:37:38.312Z,99.99
2017-11-03T00:38:37.977Z,99.99
2017-11-03T00:39:37.973Z,99.56
2017-11-03T00:40:38.300Z,99.99
2017-11-03T00:41:38.293Z,99.99
2017-11-03T00:42:37.986Z,99.99
2017-11-03T00:43:38.292Z,99.99
2017-11-03T00:44:38.288Z,99.99
2017-11-03T00:45:40.447Z,99.99
2017-11-03T00:46:37.958Z,99.99
2017-11-03T00:47:37.958Z,99.99
2017-11-03T00:48:37.963Z,99.99
2017-11-03T00:49:38.271Z,99.99
2017-11-03T00:50:38.270Z,99.99
2017-11-03T00:51:38.268Z,99.99
2017-11-03T00:52:38.279Z,99.99
2017-11-03T00:53:38.269Z,99.99
2017-11-03T00:54:38.261Z,99.99
2017-11-03T00:55:38.260Z,99.99
2017-11-03T00:56:38.258Z,99.99
2017-11-03T00:57:38.256Z,99.99
2017-11-03T00:58:38.258Z,99.99
2017-11-03T00:59:38.250Z,99.99
2017-11-03T01:00:37.930Z,99.99
2017-11-03T01:01:38.245Z,99.99
2017-11-03T01:02:37.927Z,99.99
2017-11-03T01:03:38.242Z,99.99
2017-11-03T01:04:38.906Z,99.99
2017-11-03T01:05:37.927Z,99.99
2017-11-03T01:06:37.917Z,99.99
2017-11-03T01:07:38.238Z,99.99
2017-11-03T01:08:37.924Z,99.99
2017-11-03T01:09:38.237Z,99.99
2017-11-03T01:10:38.246Z,99.99
2017-11-03T01:11:38.226Z,99.99
2017-11-03T01:12:38.222Z,99.99
2017-11-03T01:13:38.225Z,99.99
2017-11-03T01:14:37.906Z,99.99
2017-11-03T01:15:37.894Z,99.99
2017-11-03T01:16:37.900Z,99.99
2017-11-03T01:17:38.212Z,99.99
2017-11-03T01:18:38.218Z,99.99
2017-11-03T01:19:38.206Z,99.99
2017-11-03T01:20:38.209Z,99.99
2017-11-03T01:21:38.200Z,99.99
2017-11-03T01:22:38.201Z,99.99
2017-11-03T01:23:38.201Z,99.95
2017-11-03T01:24:38.195Z,99.85
2017-11-03T01:25:38.198Z,99.99
2017-11-03T01:26:38.193Z,99.99
2017-11-03T01:27:38.209Z,99.95
2017-11-03T01:28:38.190Z,99.95
2017-11-03T01:29:37.869Z,99.99
2017-11-03T01:30:38.188Z,99.99
2017-11-03T01:31:37.859Z,99.99
2017-11-03T01:32:37.858Z,99.37
2017-11-03T01:33:38.173Z,99.27
2017-11-03T01:34:38.213Z,99.27
2017-11-03T01:35:38.182Z,99.56
2017-11-03T01:36:38.171Z,99.99
2017-11-03T01:37:38.166Z,99.37
2017-11-03T01:38:38.166Z,99.99
2017-11-03T01:39:38.169Z,99.46
2017-11-03T01:40:38.161Z,99.37
2017-11-03T01:41:37.844Z,99.56
2017-11-03T01:42:38.157Z,99.66
2017-11-03T01:43:38.157Z,99.99
2017-11-03T01:44:38.157Z,99.85
2017-11-03T01:45:37.831Z,99.75
2017-11-03T01:46:38.154Z,99.95
2017-11-03T01:47:38.145Z,99.99
2017-11-03T01:48:38.146Z,99.99
2017-11-03T01:49:37.829Z,99.99
2017-11-03T01:50:37.835Z,99.95
2017-11-03T01:51:38.166Z,99.99
2017-11-03T01:52:38.139Z,99.99
2017-11-03T01:53:38.142Z,99.99
2017-11-03T01:54:38.131Z,99.99
2017-11-03T01:55:38.134Z,99.99
2017-11-03T01:56:37.815Z,99.99
2017-11-03T01:57:38.132Z,99.99
2017-11-03T01:58:38.119Z,99.99
2017-11-03T01:59:38.118Z,99.99
2017-11-03T02:00:38.126Z,99.99
2017-11-03T02:01:41.275Z,99.99
2017-11-03T02:02:37.794Z,99.99
2017-11-03T02:03:37.789Z,99.99
2017-11-03T02:04:38.108Z,99.99
2017-11-03T02:05:38.107Z,99.99
2017-11-03T02:06:38.115Z,99.99
2017-11-03T02:07:38.110Z,99.99
2017-11-03T02:08:38.116Z,99.99
2017-11-03T02:09:37.780Z,99.99
2017-11-03T02:10:38.090Z,99.99
2017-11-03T02:11:38.095Z,99.99
2017-11-03T02:12:38.089Z,99.99
2017-11-03T02:13:37.769Z,99.99
2017-11-03T02:14:38.088Z,99.99
2017-11-03T02:15:38.086Z,99.99
2017-11-03T02:16:38.073Z,99.99
2017-11-03T02:17:38.070Z,99.99
2017-11-03T02:18:37.781Z,99.99
2017-11-03T02:19:38.065Z,99.99
2017-11-03T02:20:37.743Z,99.99
2017-11-03T02:21:37.740Z,99.99
2017-11-03T02:22:38.061Z,99.99
2017-11-03T02:23:38.058Z,99.99
2017-11-03T02:24:38.062Z,99.99
2017-11-03T02:25:37.729Z,99.99
2017-11-03T02:26:37.727Z,99.99
2017-11-03T02:27:38.045Z,99.99
2017-11-03T02:28:37.721Z,99.99
2017-11-03T02:29:38.040Z,99.99
2017-11-03T02:30:38.039Z,99.99
2017-11-03T02:31:37.715Z,99.99
2017-11-03T02:32:37.718Z,99.99
2017-11-03T02:33:38.034Z,99.99
2017-11-03T02:34:38.030Z,99.99
2017-11-03T02:35:38.029Z,99.99
2017-11-03T02:36:37.701Z,99.99
2017-11-03T02:37:37.697Z,99.99
2017-11-03T02:38:38.018Z,99.99
2017-11-03T02:39:38.014Z,99.99
2017-11-03T02:40:38.012Z,99.99
2017-11-03T02:41:38.016Z,99.99
2017-11-03T02:42:38.011Z,99.99
2017-11-03T02:43:38.038Z,99.99
2017-11-03T02:44:37.682Z,99.99
2017-11-03T02:45:37.996Z,99.99
2017-11-03T02:46:37.998Z,99.99
2017-11-03T02:47:37.993Z,99.66
2017-11-03T02:48:37.988Z,99.37
2017-11-03T02:49:37.985Z,99.37
2017-11-03T02:50:37.987Z,99.66
2017-11-03T02:51:37.668Z,99.75
2017-11-03T02:52:37.979Z,99.99
2017-11-03T02:53:37.979Z,99.99
2017-11-03T02:54:37.994Z,99.99
2017-11-03T02:55:37.665Z,99.75
2017-11-03T02:56:37.973Z,99.99
2017-11-03T02:57:37.645Z,99.99
2017-11-03T02:58:37.965Z,99.99
2017-11-03T02:59:37.642Z,99.99
2017-11-03T03:00:37.962Z,99.99
2017-11-03T03:01:37.957Z,99.99
2017-11-03T03:02:37.957Z,99.99
2017-11-03T03:03:37.951Z,99.99
2017-11-03T03:04:37.946Z,99.99
2017-11-03T03:05:37.946Z,99.99
2017-11-03T03:06:37.628Z,99.99
2017-11-03T03:07:37.942Z,99.99
2017-11-03T03:08:37.935Z,99.99
2017-11-03T03:09:37.940Z,99.99
2017-11-03T03:10:37.944Z,99.99
2017-11-03T03:11:37.931Z,99.99
2017-11-03T03:12:37.926Z,99.99
2017-11-03T03:13:37.925Z,99.99
2017-11-03T03:14:37.920Z,99.99
2017-11-03T03:15:37.922Z,99.99
2017-11-03T03:16:37.919Z,99.99
2017-11-03T03:17:40.946Z,99.99
2017-11-03T03:18:37.910Z,99.99
2017-11-03T03:19:37.904Z,99.99
2017-11-03T03:20:37.905Z,99.99
2017-11-03T03:21:37.908Z,99.99
2017-11-03T03:22:37.903Z,99.99
2017-11-03T03:23:37.897Z,99.99
2017-11-03T03:24:37.899Z,99.99
2017-11-03T03:25:37.578Z,99.99
2017-11-03T03:26:37.579Z,99.99
2017-11-03T03:27:37.895Z,99.99
2017-11-03T03:28:37.884Z,99.99
2017-11-03T03:29:37.887Z,99.99
2017-11-03T03:30:37.881Z,99.99
2017-11-03T03:31:37.888Z,99.99
2017-11-03T03:32:37.877Z,99.99
2017-11-03T03:33:37.879Z,99.99
2017-11-03T03:34:37.869Z,99.99
2017-11-03T03:35:37.542Z,99.99
2017-11-03T03:36:37.861Z,99.99
2017-11-03T03:37:37.868Z,99.99
2017-11-03T03:38:37.865Z,99.99
2017-11-03T03:39:37.861Z,99.99
2017-11-03T03:40:37.854Z,99.99
2017-11-03T03:41:37.862Z,99.99
2017-11-03T03:42:37.880Z,99.99
2017-11-03T03:43:37.847Z,99.99
2017-11-03T03:44:37.521Z,99.99
2017-11-03T03:45:37.852Z,99.99
2017-11-03T03:46:37.838Z,99.99
2017-11-03T03:47:37.835Z,99.99
2017-11-03T03:48:37.829Z,99.99
2017-11-03T03:49:37.844Z,99.99
2017-11-03T03:50:37.830Z,99.99
2017-11-03T03:51:37.828Z,99.99
2017-11-03T03:52:37.514Z,99.99
2017-11-03T03:53:37.844Z,99.99
2017-11-03T03:54:37.818Z,99.99
2017-11-03T03:55:37.502Z,99.99
2017-11-03T03:56:37.814Z,99.99
2017-11-03T03:57:37.815Z,99.99
2017-11-03T03:58:37.486Z,99.99
2017-11-03T03:59:37.817Z,99.99
2017-11-03T04:00:37.490Z,99.99
2017-11-03T04:01:37.483Z,99.99
2017-11-03T04:02:37.475Z,99.99
2017-11-03T04:03:37.806Z,99.99
2017-11-03T04:04:37.795Z,99.99
2017-11-03T04:05:37.789Z,99.99
2017-11-03T04:06:37.786Z,99.99
2017-11-03T04:07:37.795Z,99.99
2017-11-03T04:08:37.470Z,99.99
2017-11-03T04:09:37.779Z,99.99
2017-11-03T04:10:37.782Z,99.99
2017-11-03T04:11:37.779Z,99.99
2017-11-03T04:12:37.777Z,99.99
2017-11-03T04:13:37.771Z,99.99
2017-11-03T04:14:37.448Z,99.99
2017-11-03T04:15:37.442Z,99.99
2017-11-03T04:16:37.774Z,99.99
2017-11-03T04:17:37.770Z,99.99
2017-11-03T04:18:39.289Z,99.99
2017-11-03T04:19:37.761Z,99.99
2017-11-03T04:20:37.753Z,99.99
2017-11-03T04:21:37.753Z,99.99
2017-11-03T04:22:37.760Z,99.99
2017-11-03T04:23:37.772Z,99.99
2017-11-03T04:24:37.744Z,99.99
2017-11-03T04:25:37.418Z,99.99
2017-11-03T04:26:37.739Z,99.99
2017-11-03T04:27:37.734Z,99.99
2017-11-03T04:28:37.733Z,99.99
2017-11-03T04:29:37.411Z,99.99
2017-11-03T04:30:37.726Z,99.99
2017-11-03T04:31:37.735Z,99.99
2017-11-03T04:32:37.720Z,99.99
2017-11-03T04:33:38.578Z,99.99
2017-11-03T04:34:37.392Z,99.99
2017-11-03T04:35:37.722Z,99.99
2017-11-03T04:36:37.720Z,99.99
2017-11-03T04:37:37.709Z,99.99
2017-11-03T04:38:37.721Z,99.99
2017-11-03T04:39:37.382Z,99.99
2017-11-03T04:40:37.708Z,99.99
2017-11-03T04:41:37.712Z,99.99
2017-11-03T04:42:37.695Z,99.99
2017-11-03T04:43:37.367Z,99.99
2017-11-03T04:44:37.700Z,99.99
2017-11-03T04:45:37.361Z,99.99
2017-11-03T04:46:37.360Z,99.99
2017-11-03T04:47:37.353Z,99.99
2017-11-03T04:48:37.682Z,99.99
2017-11-03T04:49:37.679Z,99.99
2017-11-03T04:50:37.676Z,99.99
2017-11-03T04:51:37.669Z,99.99
2017-11-03T04:52:37.661Z,99.99
2017-11-03T04:53:37.657Z,99.99
2017-11-03T04:54:37.660Z,99.99
2017-11-03T04:55:37.659Z,99.99
2017-11-03T04:56:37.650Z,99.99
2017-11-03T04:57:37.648Z,99.99
2017-11-03T04:58:37.662Z,99.99
2017-11-03T04:59:37.319Z,99.99
2017-11-03T05:00:37.650Z,99.99
2017-11-03T05:01:37.312Z,99.99
2017-11-03T05:02:37.310Z,99.99
2017-11-03T05:03:37.631Z,99.99
2017-11-03T05:04:37.636Z,99.99
2017-11-03T05:05:37.630Z,99.99
2017-11-03T05:06:37.299Z,99.99
2017-11-03T05:07:37.625Z,99.99
2017-11-03T05:08:37.641Z,99.99
2017-11-03T05:09:37.609Z,99.99
2017-11-03T05:10:37.291Z,99.99
2017-11-03T05:11:37.608Z,99.99
2017-11-03T05:12:37.604Z,99.99
2017-11-03T05:13:37.282Z,99.99
2017-11-03T05:14:37.600Z,99.99
2017-11-03T05:15:37.607Z,99.99
2017-11-03T05:16:37.592Z,99.99
2017-11-03T05:17:37.584Z,99.99
2017-11-03T05:18:37.261Z,99.99
2017-11-03T05:19:40.453Z,99.99
2017-11-03T05:20:37.258Z,99.99
2017-11-03T05:21:37.257Z,99.99
2017-11-03T05:22:37.575Z,99.99
2017-11-03T05:23:37.572Z,99.99
2017-11-03T05:24:37.565Z,99.99
2017-11-03T05:25:37.564Z,99.99
2017-11-03T05:26:37.567Z,99.99
2017-11-03T05:27:37.563Z,99.99
2017-11-03T05:28:37.561Z,99.99
2017-11-03T05:29:37.556Z,99.99
2017-11-03T05:30:37.550Z,99.99
2017-11-03T05:31:37.232Z,99.99
2017-11-03T05:32:37.227Z,99.99
2017-11-03T05:33:37.540Z,99.99
2017-11-03T05:34:37.543Z,99.99
2017-11-03T05:35:37.573Z,99.99
2017-11-03T05:36:37.548Z,99.99
2017-11-03T05:37:37.205Z,99.99
2017-11-03T05:38:37.204Z,99.99
2017-11-03T05:39:37.200Z,99.99
2017-11-03T05:40:37.531Z,99.99
2017-11-03T05:41:37.520Z,99.99
2017-11-03T05:42:37.513Z,99.99
2017-11-03T05:43:37.190Z,99.99
2017-11-03T05:44:37.196Z,99.99
2017-11-03T05:45:37.504Z,99.99
2017-11-03T05:46:37.512Z,99.99
2017-11-03T05:47:37.517Z,99.99
2017-11-03T05:48:37.495Z,99.99
2017-11-03T05:49:37.493Z,99.99
2017-11-03T05:50:37.508Z,99.99
2017-11-03T05:51:37.486Z,99.99
2017-11-03T05:52:37.488Z,99.99
2017-11-03T05:53:37.161Z,99.99
2017-11-03T05:54:37.158Z,99.99
2017-11-03T05:55:37.164Z,99.99
2017-11-03T05:56:37.476Z,99.99
2017-11-03T05:57:37.477Z,99.99
2017-11-03T05:58:37.147Z,99.99
2017-11-03T05:59:37.463Z,99.99
2017-11-03T06:00:37.471Z,99.99
2017-11-03T06:01:37.464Z,99.99
2017-11-03T06:02:37.464Z,99.99
2017-11-03T06:03:37.452Z,99.99
2017-11-03T06:04:37.128Z,99.99
2017-11-03T06:05:37.453Z,99.99
2017-11-03T06:06:37.451Z,99.99
2017-11-03T06:07:37.441Z,99.99
2017-11-03T06:08:37.439Z,99.99
2017-11-03T06:09:37.438Z,99.99
2017-11-03T06:10:37.446Z,99.99
2017-11-03T06:11:37.455Z,99.99
2017-11-03T06:12:37.107Z,99.99
2017-11-03T06:13:37.423Z,99.99
2017-11-03T06:14:37.423Z,99.99
2017-11-03T06:15:37.113Z,99.99
2017-11-03T06:16:37.095Z,99.99
2017-11-03T06:17:37.450Z,99.99
2017-11-03T06:18:37.415Z,99.99
2017-11-03T06:19:37.408Z,99.99
2017-11-03T06:20:39.476Z,99.99
2017-11-03T06:21:37.399Z,99.99
2017-11-03T06:22:37.398Z,99.99
2017-11-03T06:23:37.396Z,99.99
2017-11-03T06:24:37.387Z,99.99
2017-11-03T06:25:37.090Z,99.99
2017-11-03T06:26:37.385Z,99.99
2017-11-03T06:27:37.382Z,99.99
2017-11-03T06:28:37.059Z,99.99
2017-11-03T06:29:37.374Z,99.99
2017-11-03T06:30:37.060Z,99.99
2017-11-03T06:31:37.048Z,99.99
2017-11-03T06:32:37.365Z,99.99
2017-11-03T06:33:37.366Z,99.99
2017-11-03T06:34:37.360Z,99.99
2017-11-03T06:35:37.376Z,99.99
2017-11-03T06:36:37.358Z,99.99
2017-11-03T06:37:37.033Z,99.99
2017-11-03T06:38:37.038Z,99.99
2017-11-03T06:39:37.346Z,99.99
2017-11-03T06:40:37.352Z,99.99
2017-11-03T06:41:37.366Z,99.99
2017-11-03T06:42:37.342Z,99.99
2017-11-03T06:43:37.026Z,99.99
2017-11-03T06:44:37.344Z,99.99
2017-11-03T06:45:37.333Z,99.99
2017-11-03T06:46:37.327Z,99.99
2017-11-03T06:47:37.325Z,99.99
2017-11-03T06:48:37.322Z,99.99
2017-11-03T06:49:37.320Z,99.99
2017-11-03T06:50:37.036Z,99.99
2017-11-03T06:51:37.311Z,99.99
2017-11-03T06:52:36.989Z,99.99
2017-11-03T06:53:36.987Z,99.99
2017-11-03T06:54:37.305Z,99.99
2017-11-03T06:55:37.307Z,99.99
2017-11-03T06:56:37.302Z,99.99
2017-11-03T06:57:37.300Z,99.99
2017-11-03T06:58:37.294Z,99.99
2017-11-03T06:59:37.294Z,99.99
2017-11-03T07:00:36.991Z,99.99
2017-11-03T07:01:37.292Z,99.99
2017-11-03T07:02:37.293Z,99.99
2017-11-03T07:03:37.282Z,99.99
2017-11-03T07:04:37.287Z,99.99
2017-11-03T07:05:36.963Z,99.99
2017-11-03T07:06:37.287Z,99.99
2017-11-03T07:07:36.955Z,99.99
2017-11-03T07:08:37.271Z,99.99
2017-11-03T07:09:37.270Z,99.99
2017-11-03T07:10:36.951Z,99.99
2017-11-03T07:11:37.262Z,99.99
2017-11-03T07:12:37.267Z,99.99
2017-11-03T07:13:37.258Z,99.99
2017-11-03T07:14:37.254Z,99.99
2017-11-03T07:15:36.947Z,99.99
2017-11-03T07:16:37.271Z,99.99
2017-11-03T07:17:37.258Z,99.99
2017-11-03T07:18:37.250Z,99.99
2017-11-03T07:19:37.245Z,99.99
2017-11-03T07:20:36.919Z,99.99
2017-11-03T07:21:38.283Z,99.99
2017-11-03T07:22:36.916Z,99.99
2017-11-03T07:23:37.237Z,99.99
2017-11-03T07:24:36.914Z,99.99
2017-11-03T07:25:36.916Z,99.99
2017-11-03T07:26:37.223Z,99.99
2017-11-03T07:27:37.218Z,99.99
2017-11-03T07:28:37.219Z,99.99
2017-11-03T07:29:36.905Z,99.99
2017-11-03T07:30:37.225Z,99.99
2017-11-03T07:31:36.892Z,99.99
2017-11-03T07:32:37.217Z,99.99
2017-11-03T07:33:36.886Z,99.99
2017-11-03T07:34:37.211Z,99.99
2017-11-03T07:35:36.899Z,99.99
2017-11-03T07:36:36.879Z,99.99
2017-11-03T07:37:36.882Z,99.99
2017-11-03T07:38:37.204Z,99.99
2017-11-03T07:39:37.195Z,99.99
2017-11-03T07:40:37.206Z,99.99
2017-11-03T07:41:37.193Z,99.99
2017-11-03T07:42:37.196Z,99.99
2017-11-03T07:43:36.878Z,99.99
2017-11-03T07:44:36.866Z,99.99
2017-11-03T07:45:36.889Z,99.99
2017-11-03T07:46:36.860Z,99.99
2017-11-03T07:47:37.184Z,99.99
2017-11-03T07:48:36.854Z,99.99
2017-11-03T07:49:36.855Z,99.99
2017-11-03T07:50:36.853Z,99.71
2017-11-03T07:51:37.170Z,99.99
2017-11-03T07:52:37.167Z,99.61
2017-11-03T07:53:37.170Z,99.04
2017-11-03T07:54:37.169Z,99.32
2017-11-03T07:55:37.172Z,99.71
2017-11-03T07:56:37.168Z,99.99
2017-11-03T07:57:36.836Z,99.99
2017-11-03T07:58:37.160Z,99.99
2017-11-03T07:59:37.157Z,99.52
2017-11-03T08:00:36.835Z,99.32
2017-11-03T08:01:36.829Z,98.75
2017-11-03T08:02:37.146Z,98.47
2017-11-03T08:03:37.153Z,98.85
2017-11-03T08:04:37.151Z,98.85
2017-11-03T08:05:36.833Z,98.18
2017-11-03T08:06:36.830Z,98.18
2017-11-03T08:07:37.389Z,98.18
2017-11-03T08:08:36.829Z,98.18
2017-11-03T08:09:37.143Z,97.89
2017-11-03T08:10:37.158Z,97.99
2017-11-03T08:11:37.132Z,98.85
2017-11-03T08:12:37.144Z,98.75
2017-11-03T08:13:36.807Z,98.56
2017-11-03T08:14:36.804Z,99.04
2017-11-03T08:15:37.145Z,98.85
2017-11-03T08:16:37.130Z,98.66
2017-11-03T08:17:36.800Z,97.89
2017-11-03T08:18:37.128Z,98.08
2017-11-03T08:19:37.116Z,98.27
2017-11-03T08:20:37.129Z,97.8
2017-11-03T08:21:37.110Z,98.27
2017-11-03T08:22:37.363Z,97.51
2017-11-03T08:23:37.112Z,97.51
2017-11-03T08:24:37.110Z,97.66
2017-11-03T08:25:36.791Z,97.66
2017-11-03T08:26:37.114Z,96.51
2017-11-03T08:27:37.109Z,96.98
2017-11-03T08:28:36.779Z,96.8
2017-11-03T08:29:37.102Z,96.7
2017-11-03T08:30:37.116Z,96.8
2017-11-03T08:31:36.781Z,96.7
2017-11-03T08:32:36.775Z,96.7
2017-11-03T08:33:36.774Z,96.89
2017-11-03T08:34:37.096Z,96.61
2017-11-03T08:35:37.169Z,96.61
2017-11-03T08:36:36.768Z,96.7
2017-11-03T08:37:37.094Z,96.51
2017-11-03T08:38:36.769Z,96.22
2017-11-03T08:39:37.090Z,96.03
2017-11-03T08:40:37.109Z,96.03
2017-11-03T08:41:37.089Z,96.7
2017-11-03T08:42:37.084Z,96.89
2017-11-03T08:43:37.083Z,96.61
2017-11-03T08:44:37.089Z,95.94
2017-11-03T08:45:37.098Z,96.61
2017-11-03T08:46:37.103Z,96.7
2017-11-03T08:47:36.746Z,96.51
2017-11-03T08:48:36.745Z,96.61
2017-11-03T08:49:37.064Z,95.84
2017-11-03T08:50:36.758Z,95.36
2017-11-03T08:51:37.064Z,95.94
2017-11-03T08:52:40.243Z,96.51
2017-11-03T08:53:36.737Z,96.51
2017-11-03T08:54:36.733Z,95.46
2017-11-03T08:55:37.065Z,95.84
2017-11-03T08:56:36.735Z,95.27
2017-11-03T08:57:36.732Z,95.17
2017-11-03T08:58:37.052Z,95.08
2017-11-03T08:59:37.050Z,95.08
2017-11-03T09:00:37.060Z,94.98
2017-11-03T09:01:36.728Z,94.98
2017-11-03T09:02:37.046Z,94.89
2017-11-03T09:03:36.726Z,94.41
2017-11-03T09:04:37.052Z,93.36
2017-11-03T09:05:37.047Z,94.41
2017-11-03T09:06:37.051Z,94.22
2017-11-03T09:07:37.035Z,93.7
2017-11-03T09:08:37.046Z,93.7
2017-11-03T09:09:36.719Z,93.21
2017-11-03T09:10:37.051Z,93.21
2017-11-03T09:11:36.716Z,93.31
2017-11-03T09:12:37.030Z,93.12
2017-11-03T09:13:37.035Z,92.26
2017-11-03T09:14:37.026Z,91.97
2017-11-03T09:15:37.039Z,90.83
2017-11-03T09:16:37.023Z,91.3
2017-11-03T09:17:36.702Z,91.78
2017-11-03T09:18:36.702Z,92.16
2017-11-03T09:19:37.024Z,92.26
2017-11-03T09:20:37.060Z,91.88
2017-11-03T09:21:37.021Z,91.21
2017-11-03T09:22:36.699Z,90.73
2017-11-03T09:23:37.017Z,90.92
2017-11-03T09:24:37.015Z,90.83
2017-11-03T09:25:37.041Z,90.73
2017-11-03T09:26:36.693Z,90.64
2017-11-03T09:27:37.013Z,90.35
2017-11-03T09:28:37.019Z,90.92
2017-11-03T09:29:37.021Z,90.64
2017-11-03T09:30:37.022Z,91.21
2017-11-03T09:31:37.013Z,91.69
2017-11-03T09:32:36.690Z,91.97
2017-11-03T09:33:37.006Z,91.69
2017-11-03T09:34:36.690Z,91.97
2017-11-03T09:35:37.026Z,92.16
2017-11-03T09:36:37.005Z,91.69
2017-11-03T09:37:37.007Z,91.78
2017-11-03T09:38:36.682Z,91.06
2017-11-03T09:39:36.691Z,90.68
2017-11-03T09:40:36.692Z,90.2
2017-11-03T09:41:37.017Z,89.73
2017-11-03T09:42:37.064Z,89.06
2017-11-03T09:43:37.089Z,88.48
2017-11-03T09:44:37.025Z,88.01
2017-11-03T09:45:36.684Z,88.1
2017-11-03T09:46:37.014Z,88.68
2017-11-03T09:47:37.003Z,88.68
2017-11-03T09:48:36.676Z,88.29
2017-11-03T09:49:36.676Z,88.1
2017-11-03T09:50:36.702Z,87.72
2017-11-03T09:51:36.994Z,87.62
2017-11-03T09:52:36.672Z,87.76
2017-11-03T09:53:37.889Z,86.8
2017-11-03T09:54:36.992Z,86.61
2017-11-03T09:55:36.676Z,86.61
2017-11-03T09:56:36.668Z,85.85
2017-11-03T09:57:36.765Z,85.75
2017-11-03T09:58:36.672Z,85.75
2017-11-03T09:59:36.993Z,85.57
2017-11-03T10:00:37.018Z,85.85
2017-11-03T10:01:36.671Z,86.14
2017-11-03T10:02:36.669Z,85.85
2017-11-03T10:03:36.677Z,85.85
2017-11-03T10:04:36.996Z,86.14
2017-11-03T10:05:36.673Z,85.57
2017-11-03T10:06:36.991Z,84.8
2017-11-03T10:07:36.670Z,84.61
2017-11-03T10:08:36.669Z,84.42
2017-11-03T10:09:36.667Z,84.08
2017-11-03T10:10:37.013Z,84.17
2017-11-03T10:11:36.668Z,83.69
2017-11-03T10:12:36.989Z,83.6
2017-11-03T10:13:37.059Z,84.08
2017-11-03T10:14:36.999Z,83.31
2017-11-03T10:15:37.001Z,82.83
2017-11-03T10:16:36.987Z,83.12
2017-11-03T10:17:36.991Z,83.79
2017-11-03T10:18:37.017Z,84.55
2017-11-03T10:19:36.665Z,84.8
2017-11-03T10:20:37.069Z,85.75
2017-11-03T10:21:36.667Z,85.75
2017-11-03T10:22:36.987Z,85.57
2017-11-03T10:23:40.224Z,85.75
2017-11-03T10:24:36.675Z,85.18
2017-11-03T10:25:36.670Z,85.09
2017-11-03T10:26:36.670Z,84.13
2017-11-03T10:27:36.988Z,83.46
2017-11-03T10:28:36.673Z,83.03
2017-11-03T10:29:36.991Z,82.64
2017-11-03T10:30:36.679Z,82.45
2017-11-03T10:31:37.007Z,82.35
2017-11-03T10:32:37.005Z,81.97
2017-11-03T10:33:36.994Z,81.25
2017-11-03T10:34:36.994Z,81.05
2017-11-03T10:35:37.007Z,80.67
2017-11-03T10:36:36.671Z,79.43
2017-11-03T10:37:36.673Z,78.57
2017-11-03T10:38:36.994Z,78.95
2017-11-03T10:39:37.001Z,79.72
2017-11-03T10:40:36.999Z,79.81
2017-11-03T10:41:36.999Z,79.52
2017-11-03T10:42:36.677Z,79.81
2017-11-03T10:43:36.995Z,78.86
2017-11-03T10:44:37.009Z,79.62
2017-11-03T10:45:36.686Z,79.33
2017-11-03T10:46:36.999Z,79.62
2017-11-03T10:47:36.681Z,79.05
2017-11-03T10:48:36.690Z,79.14
2017-11-03T10:49:37.003Z,78.86
2017-11-03T10:50:36.689Z,79.14
2017-11-03T10:51:36.998Z,79.24
2017-11-03T10:52:37.003Z,78.76
2017-11-03T10:53:36.679Z,79.14
2017-11-03T10:54:36.682Z,78.47
2017-11-03T10:55:36.691Z,77.8
2017-11-03T10:56:37.009Z,77.51
2017-11-03T10:57:37.002Z,77.42
2017-11-03T10:58:37.007Z,77.61
2017-11-03T10:59:36.693Z,77.61
2017-11-03T11:00:37.015Z,77.7
2017-11-03T11:01:36.687Z,77.23
2017-11-03T11:02:36.684Z,77.51
2017-11-03T11:03:37.013Z,77.42
2017-11-03T11:04:36.692Z,77.17
2017-11-03T11:05:37.023Z,77.33
2017-11-03T11:06:36.691Z,77.42
2017-11-03T11:07:37.054Z,76.84
2017-11-03T11:08:37.020Z,77.04
2017-11-03T11:09:36.739Z,77.26
2017-11-03T11:10:37.024Z,76.98
2017-11-03T11:11:37.012Z,76.5
2017-11-03T11:12:36.693Z,75.73
2017-11-03T11:13:37.015Z,76.5
2017-11-03T11:14:36.693Z,76.4
2017-11-03T11:15:37.024Z,76.02
2017-11-03T11:16:37.016Z,76.31
2017-11-03T11:17:36.694Z,76.31
2017-11-03T11:18:37.022Z,76.31
2017-11-03T11:19:38.306Z,76.21
2017-11-03T11:20:36.706Z,75.83
2017-11-03T11:21:37.029Z,75.64
2017-11-03T11:22:36.706Z,75.93
2017-11-03T11:23:36.701Z,75.64
2017-11-03T11:24:37.222Z,75.64
2017-11-03T11:25:37.047Z,75.45
2017-11-03T11:26:36.706Z,74.91
2017-11-03T11:27:36.708Z,74.43
2017-11-03T11:28:37.039Z,74.43
2017-11-03T11:29:37.032Z,74.05
2017-11-03T11:30:37.052Z,73.95
2017-11-03T11:31:37.036Z,74.05
2017-11-03T11:32:37.032Z,73.57
2017-11-03T11:33:37.037Z,73.38
2017-11-03T11:34:37.038Z,72.52
2017-11-03T11:35:37.047Z,72.61
2017-11-03T11:36:37.044Z,72.8
2017-11-03T11:37:37.045Z,73.66
2017-11-03T11:38:37.058Z,73.66
2017-11-03T11:39:37.095Z,73.38
2017-11-03T11:40:36.741Z,73.54
2017-11-03T11:41:37.164Z,73.76
2017-11-03T11:42:36.901Z,73.82
2017-11-03T11:43:36.809Z,74.15
2017-11-03T11:44:36.786Z,74.05
2017-11-03T11:45:36.921Z,73.47
2017-11-03T11:46:36.882Z,73.09
2017-11-03T11:47:37.214Z,72.8
2017-11-03T11:48:36.758Z,72.61
2017-11-03T11:49:37.313Z,72.32
2017-11-03T11:50:36.776Z,72.61
2017-11-03T11:51:36.857Z,72.42
2017-11-03T11:52:36.834Z,72.9
2017-11-03T11:53:37.100Z,73.09
2017-11-03T11:54:36.737Z,73.28
2017-11-03T11:55:36.772Z,73.47
2017-11-03T11:56:36.748Z,73.28
2017-11-03T11:57:36.741Z,73.19
2017-11-03T11:58:36.752Z,72.8
2017-11-03T11:59:36.750Z,72.52
2017-11-03T12:00:37.091Z,72.61
2017-11-03T12:01:36.744Z,71.94
2017-11-03T12:02:37.099Z,71.37
2017-11-03T12:03:37.071Z,71.66
2017-11-03T12:04:37.087Z,71.46
2017-11-03T12:05:37.086Z,71.84
2017-11-03T12:06:36.763Z,72.32
2017-11-03T12:07:36.764Z,72.9
2017-11-03T12:08:36.760Z,72.52
2017-11-03T12:09:37.088Z,72.32
2017-11-03T12:10:37.084Z,72.42
2017-11-03T12:11:36.805Z,72.03
2017-11-03T12:12:36.766Z,71.94
2017-11-03T12:13:37.098Z,71.84
2017-11-03T12:14:36.759Z,71.27
2017-11-03T12:15:37.097Z,71.94
2017-11-03T12:16:36.772Z,71.66
2017-11-03T12:17:37.083Z,71.37
2017-11-03T12:18:36.764Z,71.37
2017-11-03T12:19:36.783Z,71.27
2017-11-03T12:20:36.775Z,71.56
2017-11-03T12:21:36.804Z,72.32
2017-11-03T12:22:37.095Z,72.29
2017-11-03T12:23:37.086Z,72.77
2017-11-03T12:24:37.093Z,73.91
2017-11-03T12:25:40.612Z,74.4
2017-11-03T12:26:37.131Z,74.3
2017-11-03T12:27:37.104Z,74.55
2017-11-03T12:28:37.089Z,74.26
2017-11-03T12:29:37.090Z,74.4
2017-11-03T12:30:37.106Z,74.58
2017-11-03T12:31:37.103Z,74.01
2017-11-03T12:32:36.773Z,73.72
2017-11-03T12:33:37.092Z,72.67
2017-11-03T12:34:36.770Z,72.67
2017-11-03T12:35:36.784Z,71.84
2017-11-03T12:36:37.100Z,71.75
2017-11-03T12:37:37.096Z,71.66
2017-11-03T12:38:37.111Z,70.98
2017-11-03T12:39:37.104Z,71.46
2017-11-03T12:40:37.117Z,71.37
2017-11-03T12:41:37.103Z,70.89
2017-11-03T12:42:36.797Z,70.98
2017-11-03T12:43:37.104Z,70.89
2017-11-03T12:44:37.127Z,70.73
2017-11-03T12:45:37.123Z,70.41
2017-11-03T12:46:37.113Z,70.35
2017-11-03T12:47:37.113Z,71.02
2017-11-03T12:48:37.384Z,70.6
2017-11-03T12:49:36.811Z,71.17
2017-11-03T12:50:36.799Z,71.08
2017-11-03T12:51:37.108Z,70.31
2017-11-03T12:52:37.111Z,70.5
2017-11-03T12:53:37.116Z,70.73